sensor_id;sensor_type;location;lat;lon;timestamp;temperature;humidity
8709;DHT22;4391;48.678;9.280;2023-04-04T00:01:20;-0.40;99.90
8709;DHT22;4391;48.678;9.280;2023-04-04T00:03:47;-0.40;99.90
8709;DHT22;4391;48.678;9.280;2023-04-04T00:06:16;-0.40;99.90
8709;DHT22;4391;48.678;9.280;2023-04-04T00:08:42;-0.30;99.90
8709;DHT22;4391;48.678;9.280;2023-04-04T00:11:11;-0.40;99.90
8709;DHT22;4391;48.678;9.280;2023-04-04T00:13:38;-0.50;99.90
8709;DHT22;4391;48.678;9.280;2023-04-04T00:16:05;-0.50;99.90
8709;DHT22;4391;48.678;9.280;2023-04-04T00:18:32;-0.70;99.90
8709;DHT22;4391;48.678;9.280;2023-04-04T00:20:59;-0.80;99.90
8709;DHT22;4391;48.678;9.280;2023-04-04T00:23:26;-0.80;99.90
8709;DHT22;4391;48.678;9.280;2023-04-04T00:25:53;-0.90;1.00
8709;DHT22;4391;48.678;9.280;2023-04-04T00:28:21;-0.90;1.00
8709;DHT22;4391;48.678;9.280;2023-04-04T00:30:48;-1.00;1.00
8709;DHT22;4391;48.678;9.280;2023-04-04T00:33:15;-1.10;1.00
8709;DHT22;4391;48.678;9.280;2023-04-04T00:35:42;-1.10;1.00
8709;DHT22;4391;48.678;9.280;2023-04-04T00:38:08;-1.10;1.00
8709;DHT22;4391;48.678;9.280;2023-04-04T00:40:40;-1.20;99.90
8709;DHT22;4391;48.678;9.280;2023-04-04T00:43:07;-1.10;1.00
8709;DHT22;4391;48.678;9.280;2023-04-04T00:45:36;-1.00;1.00
8709;DHT22;4391;48.678;9.280;2023-04-04T00:48:03;-1.10;1.00
8709;DHT22;4391;48.678;9.280;2023-04-04T00:50:30;-1.20;1.00
8709;DHT22;4391;48.678;9.280;2023-04-04T00:52:57;-1.20;1.00
8709;DHT22;4391;48.678;9.280;2023-04-04T00:55:24;-1.30;99.90
8709;DHT22;4391;48.678;9.280;2023-04-04T00:57:51;-1.30;80.40
8709;DHT22;4391;48.678;9.280;2023-04-04T01:00:19;-1.30;1.00
8709;DHT22;4391;48.678;9.280;2023-04-04T01:02:47;-1.40;1.00
8709;DHT22;4391;48.678;9.280;2023-04-04T01:05:15;-1.50;1.00
8709;DHT22;4391;48.678;9.280;2023-04-04T01:07:42;-1.50;1.00
8709;DHT22;4391;48.678;9.280;2023-04-04T01:10:09;-1.50;1.00
8709;DHT22;4391;48.678;9.280;2023-04-04T01:12:37;-1.60;1.00
8709;DHT22;4391;48.678;9.280;2023-04-04T01:15:05;-1.50;1.00
8709;DHT22;4391;48.678;9.280;2023-04-04T01:17:32;-1.50;1.00
8709;DHT22;4391;48.678;9.280;2023-04-04T01:20:04;-1.40;99.90
8709;DHT22;4391;48.678;9.280;2023-04-04T01:22:32;-1.50;99.90
8709;DHT22;4391;48.678;9.280;2023-04-04T01:25:01;-1.50;99.90
8709;DHT22;4391;48.678;9.280;2023-04-04T01:27:31;-1.60;99.90
8709;DHT22;4391;48.678;9.280;2023-04-04T01:29:58;-1.60;99.90
8709;DHT22;4391;48.678;9.280;2023-04-04T01:32:28;-1.70;99.90
8709;DHT22;4391;48.678;9.280;2023-04-04T01:35:01;-1.80;1.00
8709;DHT22;4391;48.678;9.280;2023-04-04T01:37:35;-1.80;1.00
8709;DHT22;4391;48.678;9.280;2023-04-04T01:40:09;-1.90;76.40
8709;DHT22;4391;48.678;9.280;2023-04-04T01:42:39;-2.00;99.90
8709;DHT22;4391;48.678;9.280;2023-04-04T01:45:07;-2.00;99.90
8709;DHT22;4391;48.678;9.280;2023-04-04T01:47:37;-2.10;1.00
8709;DHT22;4391;48.678;9.280;2023-04-04T01:50:06;-2.10;99.90
8709;DHT22;4391;48.678;9.280;2023-04-04T01:52:33;-2.10;1.00
8709;DHT22;4391;48.678;9.280;2023-04-04T01:55:00;-2.10;99.90
8709;DHT22;4391;48.678;9.280;2023-04-04T01:57:27;-2.20;99.90
8709;DHT22;4391;48.678;9.280;2023-04-04T01:59:55;-2.20;99.90
8709;DHT22;4391;48.678;9.280;2023-04-04T02:02:22;-2.20;1.00
8709;DHT22;4391;48.678;9.280;2023-04-04T02:04:49;-2.30;99.90
8709;DHT22;4391;48.678;9.280;2023-04-04T02:07:15;-2.30;99.90
8709;DHT22;4391;48.678;9.280;2023-04-04T02:09:42;-2.30;38.80
8709;DHT22;4391;48.678;9.280;2023-04-04T02:12:09;-2.40;99.90
8709;DHT22;4391;48.678;9.280;2023-04-04T02:14:36;-2.40;1.00
8709;DHT22;4391;48.678;9.280;2023-04-04T02:17:04;-2.40;1.00
8709;DHT22;4391;48.678;9.280;2023-04-04T02:19:31;-2.40;1.00
8709;DHT22;4391;48.678;9.280;2023-04-04T02:21:58;-2.40;99.90
8709;DHT22;4391;48.678;9.280;2023-04-04T02:24:25;-2.40;1.00
8709;DHT22;4391;48.678;9.280;2023-04-04T02:26:52;-2.40;99.90
8709;DHT22;4391;48.678;9.280;2023-04-04T02:29:19;-2.30;99.90
8709;DHT22;4391;48.678;9.280;2023-04-04T02:31:45;-2.30;1.00
8709;DHT22;4391;48.678;9.280;2023-04-04T02:34:13;-2.40;1.00
8709;DHT22;4391;48.678;9.280;2023-04-04T02:36:40;-2.40;81.00
8709;DHT22;4391;48.678;9.280;2023-04-04T02:39:07;-2.40;1.00
8709;DHT22;4391;48.678;9.280;2023-04-04T02:41:34;-2.50;99.90
8709;DHT22;4391;48.678;9.280;2023-04-04T02:44:01;-2.50;99.90
8709;DHT22;4391;48.678;9.280;2023-04-04T02:46:27;-2.50;99.90
8709;DHT22;4391;48.678;9.280;2023-04-04T02:48:54;-2.50;99.90
8709;DHT22;4391;48.678;9.280;2023-04-04T02:51:23;-2.50;40.50
8709;DHT22;4391;48.678;9.280;2023-04-04T02:53:50;-2.50;99.90
8709;DHT22;4391;48.678;9.280;2023-04-04T02:56:16;-2.50;99.90
8709;DHT22;4391;48.678;9.280;2023-04-04T02:58:43;-2.50;99.90
8709;DHT22;4391;48.678;9.280;2023-04-04T03:01:10;-2.60;1.00
8709;DHT22;4391;48.678;9.280;2023-04-04T03:03:37;-2.60;67.50
8709;DHT22;4391;48.678;9.280;2023-04-04T03:06:04;-2.60;99.90
8709;DHT22;4391;48.678;9.280;2023-04-04T03:08:32;-2.60;99.90
8709;DHT22;4391;48.678;9.280;2023-04-04T03:11:00;-2.70;1.00
8709;DHT22;4391;48.678;9.280;2023-04-04T03:13:27;-2.80;95.80
8709;DHT22;4391;48.678;9.280;2023-04-04T03:15:58;-2.80;1.00
8709;DHT22;4391;48.678;9.280;2023-04-04T03:18:27;-2.90;40.10
8709;DHT22;4391;48.678;9.280;2023-04-04T03:20:54;-2.90;88.00
8709;DHT22;4391;48.678;9.280;2023-04-04T03:23:21;-2.90;99.90
8709;DHT22;4391;48.678;9.280;2023-04-04T03:25:49;-2.90;99.90
8709;DHT22;4391;48.678;9.280;2023-04-04T03:28:16;-2.90;99.90
8709;DHT22;4391;48.678;9.280;2023-04-04T03:30:43;-2.90;99.90
8709;DHT22;4391;48.678;9.280;2023-04-04T03:33:09;-3.00;99.90
8709;DHT22;4391;48.678;9.280;2023-04-04T03:35:37;-3.00;99.90
8709;DHT22;4391;48.678;9.280;2023-04-04T03:38:04;-3.00;99.90
8709;DHT22;4391;48.678;9.280;2023-04-04T03:40:31;-3.00;99.90
8709;DHT22;4391;48.678;9.280;2023-04-04T03:42:59;-3.00;99.90
8709;DHT22;4391;48.678;9.280;2023-04-04T03:45:27;-3.00;99.90
8709;DHT22;4391;48.678;9.280;2023-04-04T03:47:54;-3.10;99.90
8709;DHT22;4391;48.678;9.280;2023-04-04T03:50:21;-3.10;99.90
8709;DHT22;4391;48.678;9.280;2023-04-04T03:52:48;-3.10;99.90
8709;DHT22;4391;48.678;9.280;2023-04-04T03:55:15;-3.10;99.90
8709;DHT22;4391;48.678;9.280;2023-04-04T03:57:42;-3.00;99.90
8709;DHT22;4391;48.678;9.280;2023-04-04T04:00:11;-3.00;99.90
8709;DHT22;4391;48.678;9.280;2023-04-04T04:02:38;-3.00;99.90
8709;DHT22;4391;48.678;9.280;2023-04-04T04:05:05;-3.10;99.90
8709;DHT22;4391;48.678;9.280;2023-04-04T04:07:32;-3.00;99.90
8709;DHT22;4391;48.678;9.280;2023-04-04T04:09:59;-3.00;99.90
8709;DHT22;4391;48.678;9.280;2023-04-04T04:12:26;-3.10;99.90
8709;DHT22;4391;48.678;9.280;2023-04-04T04:14:52;-3.10;99.90
8709;DHT22;4391;48.678;9.280;2023-04-04T04:17:21;-3.10;99.90
8709;DHT22;4391;48.678;9.280;2023-04-04T04:19:48;-3.10;99.90
8709;DHT22;4391;48.678;9.280;2023-04-04T04:22:14;-3.20;99.90
8709;DHT22;4391;48.678;9.280;2023-04-04T04:24:41;-3.20;99.90
8709;DHT22;4391;48.678;9.280;2023-04-04T04:27:08;-3.20;1.00
8709;DHT22;4391;48.678;9.280;2023-04-04T04:29:35;-3.20;1.00
8709;DHT22;4391;48.678;9.280;2023-04-04T04:32:02;-3.30;1.00
8709;DHT22;4391;48.678;9.280;2023-04-04T04:34:30;-3.30;1.00
8709;DHT22;4391;48.678;9.280;2023-04-04T04:36:57;-3.30;1.00
8709;DHT22;4391;48.678;9.280;2023-04-04T04:39:23;-3.30;1.00
8709;DHT22;4391;48.678;9.280;2023-04-04T04:41:50;-3.30;1.00
8709;DHT22;4391;48.678;9.280;2023-04-04T04:44:17;-3.30;1.00
8709;DHT22;4391;48.678;9.280;2023-04-04T04:46:44;-3.40;1.00
8709;DHT22;4391;48.678;9.280;2023-04-04T04:49:11;-3.40;1.00
8709;DHT22;4391;48.678;9.280;2023-04-04T04:51:39;-3.40;1.00
8709;DHT22;4391;48.678;9.280;2023-04-04T04:54:07;-3.40;1.00
8709;DHT22;4391;48.678;9.280;2023-04-04T04:56:34;-3.40;1.00
8709;DHT22;4391;48.678;9.280;2023-04-04T04:59:00;-3.50;1.00
8709;DHT22;4391;48.678;9.280;2023-04-04T05:01:27;-3.40;1.00
8709;DHT22;4391;48.678;9.280;2023-04-04T05:03:54;-3.40;1.00
8709;DHT22;4391;48.678;9.280;2023-04-04T05:06:21;-3.40;1.00
8709;DHT22;4391;48.678;9.280;2023-04-04T05:08:49;-3.30;1.00
8709;DHT22;4391;48.678;9.280;2023-04-04T05:11:17;-3.30;1.00
8709;DHT22;4391;48.678;9.280;2023-04-04T05:13:43;-3.30;1.00
8709;DHT22;4391;48.678;9.280;2023-04-04T05:16:10;-3.40;1.00
8709;DHT22;4391;48.678;9.280;2023-04-04T05:18:37;-3.40;1.00
8709;DHT22;4391;48.678;9.280;2023-04-04T05:21:04;-3.30;1.00
8709;DHT22;4391;48.678;9.280;2023-04-04T05:23:31;-3.30;1.00
8709;DHT22;4391;48.678;9.280;2023-04-04T05:25:59;-3.30;1.00
8709;DHT22;4391;48.678;9.280;2023-04-04T05:28:27;-3.20;1.00
8709;DHT22;4391;48.678;9.280;2023-04-04T05:30:54;-3.20;1.00
8709;DHT22;4391;48.678;9.280;2023-04-04T05:33:21;-3.20;1.00
8709;DHT22;4391;48.678;9.280;2023-04-04T05:35:48;-3.10;99.90
8709;DHT22;4391;48.678;9.280;2023-04-04T05:38:15;-3.00;99.90
8709;DHT22;4391;48.678;9.280;2023-04-04T05:40:42;-2.90;99.90
8709;DHT22;4391;48.678;9.280;2023-04-04T05:43:11;-2.80;99.90
8709;DHT22;4391;48.678;9.280;2023-04-04T05:45:38;-2.60;1.00
8709;DHT22;4391;48.678;9.280;2023-04-04T05:48:04;-2.50;99.90
8709;DHT22;4391;48.678;9.280;2023-04-04T05:50:31;-2.30;1.00
8709;DHT22;4391;48.678;9.280;2023-04-04T05:52:58;-2.10;1.00
8709;DHT22;4391;48.678;9.280;2023-04-04T05:55:25;-1.80;99.90
8709;DHT22;4391;48.678;9.280;2023-04-04T05:57:52;-1.60;1.00
8709;DHT22;4391;48.678;9.280;2023-04-04T06:00:20;-1.30;99.90
8709;DHT22;4391;48.678;9.280;2023-04-04T06:02:47;-1.10;11.80
8709;DHT22;4391;48.678;9.280;2023-04-04T06:05:14;-0.90;1.00
8709;DHT22;4391;48.678;9.280;2023-04-04T06:07:41;-0.60;99.90
8709;DHT22;4391;48.678;9.280;2023-04-04T06:10:08;-0.40;98.80
8709;DHT22;4391;48.678;9.280;2023-04-04T06:12:35;0.00;14.60
8709;DHT22;4391;48.678;9.280;2023-04-04T06:15:03;0.30;1.00
8709;DHT22;4391;48.678;9.280;2023-04-04T06:17:31;0.70;1.00
8709;DHT22;4391;48.678;9.280;2023-04-04T06:19:58;1.10;99.90
8709;DHT22;4391;48.678;9.280;2023-04-04T06:22:25;1.40;99.90
8709;DHT22;4391;48.678;9.280;2023-04-04T06:24:54;1.70;99.90
8709;DHT22;4391;48.678;9.280;2023-04-04T06:27:21;2.00;99.90
8709;DHT22;4391;48.678;9.280;2023-04-04T06:29:48;2.10;99.90
8709;DHT22;4391;48.678;9.280;2023-04-04T06:32:14;2.30;99.90
8709;DHT22;4391;48.678;9.280;2023-04-04T06:34:43;2.50;99.90
8709;DHT22;4391;48.678;9.280;2023-04-04T06:37:09;2.70;99.90
8709;DHT22;4391;48.678;9.280;2023-04-04T06:39:36;2.70;99.90
8709;DHT22;4391;48.678;9.280;2023-04-04T06:42:03;2.60;99.90
8709;DHT22;4391;48.678;9.280;2023-04-04T06:44:31;2.70;99.90
8709;DHT22;4391;48.678;9.280;2023-04-04T06:46:58;2.90;99.90
8709;DHT22;4391;48.678;9.280;2023-04-04T06:49:25;3.00;99.90
8709;DHT22;4391;48.678;9.280;2023-04-04T06:51:53;3.20;99.90
8709;DHT22;4391;48.678;9.280;2023-04-04T06:54:20;3.20;99.90
8709;DHT22;4391;48.678;9.280;2023-04-04T06:56:46;3.30;99.90
8709;DHT22;4391;48.678;9.280;2023-04-04T06:59:13;3.70;99.90
8709;DHT22;4391;48.678;9.280;2023-04-04T07:01:40;3.80;99.90
8709;DHT22;4391;48.678;9.280;2023-04-04T07:04:07;3.50;99.90
8709;DHT22;4391;48.678;9.280;2023-04-04T07:06:33;3.50;99.90
8709;DHT22;4391;48.678;9.280;2023-04-04T07:09:02;3.50;99.90
8709;DHT22;4391;48.678;9.280;2023-04-04T07:11:29;3.60;99.90
8709;DHT22;4391;48.678;9.280;2023-04-04T07:13:55;3.50;99.90
8709;DHT22;4391;48.678;9.280;2023-04-04T07:16:22;3.50;99.90
8709;DHT22;4391;48.678;9.280;2023-04-04T07:18:49;3.40;99.90
8709;DHT22;4391;48.678;9.280;2023-04-04T07:21:16;3.40;99.90
8709;DHT22;4391;48.678;9.280;2023-04-04T07:23:43;3.40;99.90
8709;DHT22;4391;48.678;9.280;2023-04-04T07:26:11;3.50;99.90
8709;DHT22;4391;48.678;9.280;2023-04-04T07:28:38;3.50;99.90
8709;DHT22;4391;48.678;9.280;2023-04-04T07:31:07;3.60;99.90
8709;DHT22;4391;48.678;9.280;2023-04-04T07:33:34;3.60;99.90
8709;DHT22;4391;48.678;9.280;2023-04-04T07:36:01;3.90;99.90
8709;DHT22;4391;48.678;9.280;2023-04-04T07:38:28;4.10;99.90
8709;DHT22;4391;48.678;9.280;2023-04-04T07:40:55;4.30;99.90
8709;DHT22;4391;48.678;9.280;2023-04-04T07:43:23;4.50;99.90
8709;DHT22;4391;48.678;9.280;2023-04-04T07:45:52;4.60;99.90
8709;DHT22;4391;48.678;9.280;2023-04-04T07:48:19;4.70;99.90
8709;DHT22;4391;48.678;9.280;2023-04-04T07:50:46;4.90;99.90
8709;DHT22;4391;48.678;9.280;2023-04-04T07:53:13;5.00;99.90
8709;DHT22;4391;48.678;9.280;2023-04-04T07:55:40;4.90;99.90
8709;DHT22;4391;48.678;9.280;2023-04-04T07:58:07;5.10;99.90
8709;DHT22;4391;48.678;9.280;2023-04-04T08:00:35;5.30;99.90
8709;DHT22;4391;48.678;9.280;2023-04-04T08:03:02;5.50;99.90
8709;DHT22;4391;48.678;9.280;2023-04-04T08:05:29;5.80;99.90
8709;DHT22;4391;48.678;9.280;2023-04-04T08:07:56;5.90;99.90
8709;DHT22;4391;48.678;9.280;2023-04-04T08:10:23;6.00;99.90
8709;DHT22;4391;48.678;9.280;2023-04-04T08:12:50;6.20;99.90
8709;DHT22;4391;48.678;9.280;2023-04-04T08:15:17;6.30;99.90
8709;DHT22;4391;48.678;9.280;2023-04-04T08:17:45;6.50;99.90
8709;DHT22;4391;48.678;9.280;2023-04-04T08:20:12;6.80;99.90
8709;DHT22;4391;48.678;9.280;2023-04-04T08:22:41;7.00;99.90
8709;DHT22;4391;48.678;9.280;2023-04-04T08:25:08;7.10;99.90
8709;DHT22;4391;48.678;9.280;2023-04-04T08:27:37;7.50;99.90
8709;DHT22;4391;48.678;9.280;2023-04-04T08:30:06;7.30;99.90
8709;DHT22;4391;48.678;9.280;2023-04-04T08:32:33;7.00;99.90
8709;DHT22;4391;48.678;9.280;2023-04-04T08:35:02;7.30;99.90
8709;DHT22;4391;48.678;9.280;2023-04-04T08:37:29;7.50;99.90
8709;DHT22;4391;48.678;9.280;2023-04-04T08:39:56;7.70;99.90
8709;DHT22;4391;48.678;9.280;2023-04-04T08:42:23;7.60;99.90
8709;DHT22;4391;48.678;9.280;2023-04-04T08:44:52;7.60;99.90
8709;DHT22;4391;48.678;9.280;2023-04-04T08:47:19;7.90;99.90
8709;DHT22;4391;48.678;9.280;2023-04-04T08:49:48;8.40;99.90
8709;DHT22;4391;48.678;9.280;2023-04-04T08:52:20;7.90;99.90
8709;DHT22;4391;48.678;9.280;2023-04-04T08:54:50;7.90;99.90
8709;DHT22;4391;48.678;9.280;2023-04-04T08:57:17;7.60;99.90
8709;DHT22;4391;48.678;9.280;2023-04-04T08:59:44;7.70;99.90
8709;DHT22;4391;48.678;9.280;2023-04-04T09:02:19;8.60;99.90
8709;DHT22;4391;48.678;9.280;2023-04-04T09:04:48;9.30;99.90
8709;DHT22;4391;48.678;9.280;2023-04-04T09:07:15;9.40;99.90
8709;DHT22;4391;48.678;9.280;2023-04-04T09:09:46;9.20;99.90
8709;DHT22;4391;48.678;9.280;2023-04-04T09:12:14;9.60;99.90
8709;DHT22;4391;48.678;9.280;2023-04-04T09:14:42;10.30;99.90
8709;DHT22;4391;48.678;9.280;2023-04-04T09:17:09;10.80;99.90
8709;DHT22;4391;48.678;9.280;2023-04-04T09:19:36;11.10;99.90
8709;DHT22;4391;48.678;9.280;2023-04-04T09:22:06;10.60;99.90
8709;DHT22;4391;48.678;9.280;2023-04-04T09:24:40;10.30;99.90
8709;DHT22;4391;48.678;9.280;2023-04-04T09:27:10;10.70;99.90
8709;DHT22;4391;48.678;9.280;2023-04-04T09:29:37;11.20;99.90
8709;DHT22;4391;48.678;9.280;2023-04-04T09:32:07;11.50;99.90
8709;DHT22;4391;48.678;9.280;2023-04-04T09:34:34;12.00;99.90
8709;DHT22;4391;48.678;9.280;2023-04-04T09:37:02;11.70;99.90
8709;DHT22;4391;48.678;9.280;2023-04-04T09:39:30;12.00;99.90
8709;DHT22;4391;48.678;9.280;2023-04-04T09:41:58;12.00;99.90
8709;DHT22;4391;48.678;9.280;2023-04-04T09:44:27;11.90;99.90
8709;DHT22;4391;48.678;9.280;2023-04-04T09:47:13;12.10;99.90
8709;DHT22;4391;48.678;9.280;2023-04-04T09:49:48;11.80;99.90
8709;DHT22;4391;48.678;9.280;2023-04-04T09:52:17;12.00;99.90
8709;DHT22;4391;48.678;9.280;2023-04-04T09:54:54;12.10;99.90
8709;DHT22;4391;48.678;9.280;2023-04-04T09:57:21;12.40;99.90
8709;DHT22;4391;48.678;9.280;2023-04-04T09:59:49;12.50;99.90
8709;DHT22;4391;48.678;9.280;2023-04-04T10:02:16;12.60;99.90
8709;DHT22;4391;48.678;9.280;2023-04-04T10:04:43;12.90;99.90
8709;DHT22;4391;48.678;9.280;2023-04-04T10:07:11;12.70;99.90
8709;DHT22;4391;48.678;9.280;2023-04-04T10:09:39;13.10;99.90
8709;DHT22;4391;48.678;9.280;2023-04-04T10:12:09;12.40;99.90
8709;DHT22;4391;48.678;9.280;2023-04-04T10:14:39;12.90;99.90
8709;DHT22;4391;48.678;9.280;2023-04-04T10:17:08;13.10;99.90
8709;DHT22;4391;48.678;9.280;2023-04-04T10:19:36;13.80;99.90
8709;DHT22;4391;48.678;9.280;2023-04-04T10:22:04;14.10;99.90
8709;DHT22;4391;48.678;9.280;2023-04-04T10:24:31;14.50;99.90
8709;DHT22;4391;48.678;9.280;2023-04-04T10:26:58;14.90;99.90
8709;DHT22;4391;48.678;9.280;2023-04-04T10:29:25;15.70;99.90
8709;DHT22;4391;48.678;9.280;2023-04-04T10:31:57;16.30;99.90
8709;DHT22;4391;48.678;9.280;2023-04-04T10:34:31;16.90;99.90
8709;DHT22;4391;48.678;9.280;2023-04-04T10:37:06;17.80;99.90
8709;DHT22;4391;48.678;9.280;2023-04-04T10:39:37;18.20;99.90
8709;DHT22;4391;48.678;9.280;2023-04-04T10:42:05;17.80;99.90
8709;DHT22;4391;48.678;9.280;2023-04-04T10:44:35;17.40;99.90
8709;DHT22;4391;48.678;9.280;2023-04-04T10:47:09;17.50;99.90
8709;DHT22;4391;48.678;9.280;2023-04-04T10:49:41;17.80;99.90
8709;DHT22;4391;48.678;9.280;2023-04-04T10:52:10;18.30;99.90
8709;DHT22;4391;48.678;9.280;2023-04-04T10:54:38;19.20;99.90
8709;DHT22;4391;48.678;9.280;2023-04-04T10:57:06;20.10;99.90
8709;DHT22;4391;48.678;9.280;2023-04-04T10:59:32;20.50;99.90
8709;DHT22;4391;48.678;9.280;2023-04-04T11:02:01;20.90;99.90
8709;DHT22;4391;48.678;9.280;2023-04-04T11:04:30;21.40;99.90
8709;DHT22;4391;48.678;9.280;2023-04-04T11:07:10;21.60;99.90
8709;DHT22;4391;48.678;9.280;2023-04-04T11:09:51;19.70;99.90
8709;DHT22;4391;48.678;9.280;2023-04-04T11:12:26;19.10;99.90
8709;DHT22;4391;48.678;9.280;2023-04-04T11:15:05;19.40;99.90
8709;DHT22;4391;48.678;9.280;2023-04-04T11:17:57;20.40;99.90
8709;DHT22;4391;48.678;9.280;2023-04-04T11:20:28;20.90;99.90
8709;DHT22;4391;48.678;9.280;2023-04-04T11:23:07;21.60;99.90
8709;DHT22;4391;48.678;9.280;2023-04-04T11:25:39;21.90;99.90
8709;DHT22;4391;48.678;9.280;2023-04-04T11:28:25;22.00;99.90
8709;DHT22;4391;48.678;9.280;2023-04-04T11:31:22;23.10;99.90
8709;DHT22;4391;48.678;9.280;2023-04-04T11:34:01;22.20;99.90
8709;DHT22;4391;48.678;9.280;2023-04-04T11:36:48;22.20;99.90
8709;DHT22;4391;48.678;9.280;2023-04-04T11:39:24;22.90;99.90
8709;DHT22;4391;48.678;9.280;2023-04-04T11:41:55;22.60;99.90
8709;DHT22;4391;48.678;9.280;2023-04-04T11:44:24;21.20;99.90
8709;DHT22;4391;48.678;9.280;2023-04-04T11:46:55;21.90;99.90
8709;DHT22;4391;48.678;9.280;2023-04-04T11:49:26;23.20;99.90
8709;DHT22;4391;48.678;9.280;2023-04-04T11:51:54;23.70;99.90
8709;DHT22;4391;48.678;9.280;2023-04-04T11:54:23;23.30;99.90
8709;DHT22;4391;48.678;9.280;2023-04-04T11:56:50;23.60;99.90
8709;DHT22;4391;48.678;9.280;2023-04-04T11:59:18;24.10;99.90
8709;DHT22;4391;48.678;9.280;2023-04-04T12:01:45;24.90;99.90
8709;DHT22;4391;48.678;9.280;2023-04-04T12:04:14;24.60;99.90
8709;DHT22;4391;48.678;9.280;2023-04-04T12:06:42;24.40;99.90
8709;DHT22;4391;48.678;9.280;2023-04-04T12:09:09;25.30;99.90
8709;DHT22;4391;48.678;9.280;2023-04-04T12:11:43;25.70;99.90
8709;DHT22;4391;48.678;9.280;2023-04-04T12:14:15;26.50;99.90
8709;DHT22;4391;48.678;9.280;2023-04-04T12:16:42;26.20;99.90
8709;DHT22;4391;48.678;9.280;2023-04-04T12:19:10;26.60;99.90
8709;DHT22;4391;48.678;9.280;2023-04-04T12:21:37;27.00;99.90
8709;DHT22;4391;48.678;9.280;2023-04-04T12:24:05;27.30;99.90
8709;DHT22;4391;48.678;9.280;2023-04-04T12:26:32;27.00;99.90
8709;DHT22;4391;48.678;9.280;2023-04-04T12:29:01;26.50;99.90
8709;DHT22;4391;48.678;9.280;2023-04-04T12:31:28;26.60;99.90
8709;DHT22;4391;48.678;9.280;2023-04-04T12:33:56;27.00;99.90
8709;DHT22;4391;48.678;9.280;2023-04-04T12:36:24;26.30;99.90
8709;DHT22;4391;48.678;9.280;2023-04-04T12:38:58;25.90;99.90
8709;DHT22;4391;48.678;9.280;2023-04-04T12:41:26;26.00;99.90
8709;DHT22;4391;48.678;9.280;2023-04-04T12:44:01;26.00;99.90
8709;DHT22;4391;48.678;9.280;2023-04-04T12:46:34;26.70;99.90
8709;DHT22;4391;48.678;9.280;2023-04-04T12:49:02;24.90;99.90
8709;DHT22;4391;48.678;9.280;2023-04-04T12:51:32;23.50;99.90
8709;DHT22;4391;48.678;9.280;2023-04-04T12:54:02;23.20;99.90
8709;DHT22;4391;48.678;9.280;2023-04-04T12:56:30;23.30;99.90
8709;DHT22;4391;48.678;9.280;2023-04-04T12:59:03;24.00;99.90
8709;DHT22;4391;48.678;9.280;2023-04-04T13:01:30;23.70;99.90
8709;DHT22;4391;48.678;9.280;2023-04-04T13:04:00;24.90;99.90
8709;DHT22;4391;48.678;9.280;2023-04-04T13:06:29;25.40;99.90
8709;DHT22;4391;48.678;9.280;2023-04-04T13:08:56;26.30;99.90
8709;DHT22;4391;48.678;9.280;2023-04-04T13:11:24;26.70;99.90
8709;DHT22;4391;48.678;9.280;2023-04-04T13:14:03;26.50;99.90
8709;DHT22;4391;48.678;9.280;2023-04-04T13:16:31;25.80;99.90
8709;DHT22;4391;48.678;9.280;2023-04-04T13:18:58;26.00;99.90
8709;DHT22;4391;48.678;9.280;2023-04-04T13:21:26;26.30;99.90
8709;DHT22;4391;48.678;9.280;2023-04-04T13:23:53;26.80;99.90
8709;DHT22;4391;48.678;9.280;2023-04-04T13:26:19;26.80;99.90
8709;DHT22;4391;48.678;9.280;2023-04-04T13:28:47;26.80;99.90
8709;DHT22;4391;48.678;9.280;2023-04-04T13:31:15;26.90;99.90
8709;DHT22;4391;48.678;9.280;2023-04-04T13:33:42;27.30;99.90
8709;DHT22;4391;48.678;9.280;2023-04-04T13:36:09;27.20;99.90
8709;DHT22;4391;48.678;9.280;2023-04-04T13:38:38;28.00;99.90
8709;DHT22;4391;48.678;9.280;2023-04-04T13:41:05;28.70;99.90
8709;DHT22;4391;48.678;9.280;2023-04-04T13:43:32;27.50;99.90
8709;DHT22;4391;48.678;9.280;2023-04-04T13:45:59;27.10;99.90
8709;DHT22;4391;48.678;9.280;2023-04-04T13:48:27;26.70;99.90
8709;DHT22;4391;48.678;9.280;2023-04-04T13:50:54;25.90;99.90
8709;DHT22;4391;48.678;9.280;2023-04-04T13:53:21;25.40;99.90
8709;DHT22;4391;48.678;9.280;2023-04-04T13:55:48;25.50;99.90
8709;DHT22;4391;48.678;9.280;2023-04-04T13:58:15;25.70;99.90
8709;DHT22;4391;48.678;9.280;2023-04-04T14:00:46;26.60;99.90
8709;DHT22;4391;48.678;9.280;2023-04-04T14:03:12;27.20;99.90
8709;DHT22;4391;48.678;9.280;2023-04-04T14:05:42;26.00;99.90
8709;DHT22;4391;48.678;9.280;2023-04-04T14:08:09;26.40;99.90
8709;DHT22;4391;48.678;9.280;2023-04-04T14:10:35;26.10;99.90
8709;DHT22;4391;48.678;9.280;2023-04-04T14:13:02;26.30;99.90
8709;DHT22;4391;48.678;9.280;2023-04-04T14:15:30;26.30;99.90
8709;DHT22;4391;48.678;9.280;2023-04-04T14:17:57;26.10;99.90
8709;DHT22;4391;48.678;9.280;2023-04-04T14:20:24;25.50;99.90
8709;DHT22;4391;48.678;9.280;2023-04-04T14:22:52;25.40;99.90
8709;DHT22;4391;48.678;9.280;2023-04-04T14:25:19;25.50;99.90
8709;DHT22;4391;48.678;9.280;2023-04-04T14:27:46;24.50;99.90
8709;DHT22;4391;48.678;9.280;2023-04-04T14:30:14;24.40;99.90
8709;DHT22;4391;48.678;9.280;2023-04-04T14:32:41;24.00;99.90
8709;DHT22;4391;48.678;9.280;2023-04-04T14:35:08;24.30;99.90
8709;DHT22;4391;48.678;9.280;2023-04-04T14:37:35;24.00;99.90
8709;DHT22;4391;48.678;9.280;2023-04-04T14:40:05;23.80;99.90
8709;DHT22;4391;48.678;9.280;2023-04-04T14:42:32;24.40;99.90
8709;DHT22;4391;48.678;9.280;2023-04-04T14:44:59;25.00;99.90
8709;DHT22;4391;48.678;9.280;2023-04-04T14:47:29;25.20;99.90
8709;DHT22;4391;48.678;9.280;2023-04-04T14:49:56;25.00;99.90
8709;DHT22;4391;48.678;9.280;2023-04-04T14:52:23;24.50;99.90
8709;DHT22;4391;48.678;9.280;2023-04-04T14:54:50;23.80;99.90
8709;DHT22;4391;48.678;9.280;2023-04-04T14:57:18;23.80;99.90
8709;DHT22;4391;48.678;9.280;2023-04-04T14:59:45;23.70;99.90
8709;DHT22;4391;48.678;9.280;2023-04-04T15:02:12;23.60;99.90
8709;DHT22;4391;48.678;9.280;2023-04-04T15:04:39;23.90;99.90
8709;DHT22;4391;48.678;9.280;2023-04-04T15:07:07;22.60;99.90
8709;DHT22;4391;48.678;9.280;2023-04-04T15:09:34;22.70;99.90
8709;DHT22;4391;48.678;9.280;2023-04-04T15:12:01;22.60;99.90
8709;DHT22;4391;48.678;9.280;2023-04-04T15:14:29;22.10;99.40
8709;DHT22;4391;48.678;9.280;2023-04-04T15:16:56;21.30;95.30
8709;DHT22;4391;48.678;9.280;2023-04-04T15:19:23;21.40;95.90
8709;DHT22;4391;48.678;9.280;2023-04-04T15:21:50;20.70;92.60
8709;DHT22;4391;48.678;9.280;2023-04-04T15:24:17;20.90;93.10
8709;DHT22;4391;48.678;9.280;2023-04-04T15:26:45;21.00;93.10
8709;DHT22;4391;48.678;9.280;2023-04-04T15:29:11;21.30;94.40
8709;DHT22;4391;48.678;9.280;2023-04-04T15:31:41;21.40;95.20
8709;DHT22;4391;48.678;9.280;2023-04-04T15:34:08;21.40;95.10
8709;DHT22;4391;48.678;9.280;2023-04-04T15:36:35;20.60;97.60
8709;DHT22;4391;48.678;9.280;2023-04-04T15:39:02;20.50;89.90
8709;DHT22;4391;48.678;9.280;2023-04-04T15:41:29;20.70;90.90
8709;DHT22;4391;48.678;9.280;2023-04-04T15:43:55;21.20;92.90
8709;DHT22;4391;48.678;9.280;2023-04-04T15:46:23;20.90;91.30
8709;DHT22;4391;48.678;9.280;2023-04-04T15:48:51;20.40;88.20
8709;DHT22;4391;48.678;9.280;2023-04-04T15:51:20;20.30;86.10
8709;DHT22;4391;48.678;9.280;2023-04-04T15:53:47;19.30;76.80
8709;DHT22;4391;48.678;9.280;2023-04-04T15:56:14;19.10;75.40
8709;DHT22;4391;48.678;9.280;2023-04-04T15:58:41;17.70;60.90
8709;DHT22;4391;48.678;9.280;2023-04-04T16:01:08;16.00;48.20
8709;DHT22;4391;48.678;9.280;2023-04-04T16:03:35;14.50;36.70
8709;DHT22;4391;48.678;9.280;2023-04-04T16:06:03;13.20;28.20
8709;DHT22;4391;48.678;9.280;2023-04-04T16:08:34;12.30;24.00
8709;DHT22;4391;48.678;9.280;2023-04-04T16:11:01;11.70;21.50
8709;DHT22;4391;48.678;9.280;2023-04-04T16:13:28;11.30;20.30